UHSS

Details ICAO UHSS (UUS)
Name Yuzhno-Sakhalinsk Khomutovo Intl
Region Russia
Timezone Asia/Sakhalin (UTC+11.0)
Plans Departing 147
Arriving 155
Stats Elevation 59 ft / 18 m (AMSL)
Location 46.885500° 142.717000°
Runways 1
Magnetic Variation 10.414° W
Sunrise 2018-12-16 22:10:07 UTC / 2018-12-17 09:10:07 Local
Sunset 2018-12-17 06:42:30 UTC / 2018-12-17 17:42:30 Local
Advertisement - Login to hide

Runways

ID Width Length Bearing (true/mag) Surface Threshold Overrun Markings Lighting
01 148 ft / 45 m 11,153 ft / 3,399 m 0.93° / 11.34° ASPHALT 0 ft / 0 m 259 ft / 79 m PREC-APP CENTERLINE EDGE THRESHOLD ALSF-II REIL-OMNI
19 148 ft / 45 m 11,153 ft / 3,399 m 180.93° / 191.34° ASPHALT 0 ft / 0 m 266 ft / 81 m PREC-APP CENTERLINE EDGE THRESHOLD ALSF-II REIL-OMNI

Map

Weather


0- 5 10 15 20 25 30 35+ Temperature / °C

Clouds and Precipitation
Forecast for 2018-12-17 12:00 UTC. Updated 20 minutes ago

Ground ~20,000 ft ~40,000 ft Winds

METAR

UHSS 170930Z 00000MPS 9999 -SHSN BKN047CB M04/M07 Q1003 R01/450350 NOSIG RMK QFE751/1001

TAF

TAF UHSS 170800Z 1709/1815 27003MPS 9999 BKN030CB OVC100 TEMPO 1709/1815 1400 SHSN BR BKN007 BKN030CB

Frequencies

Ground 119.00 MHz Khomutovo Ground
Recorded 126.20 MHz Khomutowo ATIS
Tower 120.60 MHz Khomutovo Tower
Unicom 120.60 MHz Khomutovo Radar
Warning: Do not use this data for real-world aviation or navigation. No guarantee of current accuracy is given.